createdAt,value
2018-09-10T00:00:15.713Z,101561.93
2018-09-10T00:02:45.214Z,101567.53
2018-09-10T00:05:14.142Z,101560.72
2018-09-10T00:07:43.251Z,101561.02
2018-09-10T00:10:13.758Z,101565.39
2018-09-10T00:12:43.815Z,101566.39
2018-09-10T00:15:12.975Z,101563.16
2018-09-10T00:17:42.256Z,101562.89
2018-09-10T00:20:11.248Z,101558.59
2018-09-10T00:22:40.333Z,101565.47
2018-09-10T00:25:09.674Z,101558.70
2018-09-10T00:27:38.689Z,101552.08
2018-09-10T00:30:07.813Z,101549.32
2018-09-10T00:32:36.968Z,101552.89
2018-09-10T00:35:06.904Z,101551.78
2018-09-10T00:37:35.857Z,101557.48
2018-09-10T00:40:04.862Z,101562.70
2018-09-10T00:42:34.802Z,101558.81
2018-09-10T00:45:03.889Z,101565.91
2018-09-10T00:47:33.134Z,101567.68
2018-09-10T00:50:02.201Z,101570.95
2018-09-10T00:52:31.213Z,101573.13
2018-09-10T00:55:02.246Z,101576.95
2018-09-10T00:57:31.242Z,101577.54
2018-09-10T01:00:00.592Z,101576.99
2018-09-10T01:02:30.563Z,101575.59
2018-09-10T01:04:59.488Z,101575.30
2018-09-10T01:07:28.755Z,101580.19
2018-09-10T01:09:57.710Z,101581.44
2018-09-10T01:12:26.711Z,101579.63
2018-09-10T01:14:56.031Z,101585.48
2018-09-10T01:17:26.140Z,101586.39
2018-09-10T01:19:56.046Z,101593.20
2018-09-10T01:22:25.200Z,101597.83
2018-09-10T01:24:54.106Z,101593.92
2018-09-10T01:27:23.088Z,101590.98
2018-09-10T01:29:52.028Z,101598.52
2018-09-10T01:32:21.150Z,101602.22
2018-09-10T01:34:55.771Z,101602.05
2018-09-10T01:37:24.749Z,101605.75
2018-09-10T01:39:53.736Z,101599.87
2018-09-10T01:42:22.705Z,101595.25
2018-09-10T01:44:51.699Z,101595.25
2018-09-10T01:47:21.658Z,101587.64
2018-09-10T01:49:51.654Z,101584.70
2018-09-10T01:52:20.799Z,101588.78
2018-09-10T01:54:49.751Z,101602.38
2018-09-10T01:57:18.760Z,101599.48
2018-09-10T01:59:47.753Z,101597.62
2018-09-10T02:02:16.912Z,101602.52
2018-09-10T02:04:45.885Z,101601.06
2018-09-10T02:07:15.825Z,101598.59
2018-09-10T02:09:44.824Z,101603.98
2018-09-10T02:12:19.130Z,101607.72
2018-09-10T02:14:48.359Z,101607.25
2018-09-10T02:17:17.896Z,101615.66
2018-09-10T02:19:46.889Z,101605.67
2018-09-10T02:22:16.200Z,101601.30
2018-09-10T02:24:45.119Z,101592.19
2018-09-10T02:27:15.052Z,101592.28
2018-09-10T02:29:44.055Z,101579.75
2018-09-10T02:32:13.024Z,101582.17
2018-09-10T02:34:42.000Z,101583.33
2018-09-10T02:37:10.981Z,101584.34
2018-09-10T02:39:40.905Z,101580.72
2018-09-10T02:42:11.890Z,101582.02
2018-09-10T02:44:40.859Z,101581.55
2018-09-10T02:47:10.301Z,101587.31
2018-09-10T02:49:39.279Z,101579.25
2018-09-10T02:52:08.246Z,101581.55
2018-09-10T02:54:37.394Z,101590.27
2018-09-10T02:57:06.522Z,101585.08
2018-09-10T02:59:36.712Z,101593.39
2018-09-10T03:02:05.693Z,101605.12
2018-09-10T03:04:38.308Z,101605.17
2018-09-10T03:07:08.259Z,101594.50
2018-09-10T03:09:38.209Z,101603.42
2018-09-10T03:12:07.448Z,101610.52
2018-09-10T03:14:36.451Z,101607.23
2018-09-10T03:17:05.476Z,101604.31
2018-09-10T03:19:34.564Z,101603.97
2018-09-10T03:22:03.568Z,101608.09
2018-09-10T03:24:33.563Z,101615.05
2018-09-10T03:27:03.609Z,101618.88
2018-09-10T03:29:32.548Z,101620.13
2018-09-10T03:32:01.779Z,101629.48
2018-09-10T03:34:31.750Z,101625.81
2018-09-10T03:37:01.720Z,101629.70
2018-09-10T03:39:30.956Z,101636.20
2018-09-10T03:42:00.983Z,101634.52
2018-09-10T03:44:29.883Z,101641.88
2018-09-10T03:47:00.870Z,101643.63
2018-09-10T03:49:29.884Z,101646.77
2018-09-10T03:51:58.806Z,101644.98
2018-09-10T03:54:28.803Z,101646.09
2018-09-10T03:56:57.944Z,101652.64
2018-09-10T03:59:26.923Z,101652.08
2018-09-10T04:01:56.929Z,101659.27
2018-09-10T04:04:25.800Z,101669.41
2018-09-10T04:06:54.744Z,101664.41
2018-09-10T04:09:24.706Z,101665.48
2018-09-10T04:11:54.139Z,101664.66
2018-09-10T04:14:23.035Z,101661.64
2018-09-10T04:16:52.036Z,101651.30
2018-09-10T04:19:21.977Z,101650.34
2018-09-10T04:21:51.118Z,101651.16
2018-09-10T04:24:21.060Z,101652.25
2018-09-10T04:26:50.097Z,101660.28
2018-09-10T04:29:19.409Z,101665.73
2018-09-10T04:31:49.712Z,101667.38
2018-09-10T04:34:18.641Z,101663.77
2018-09-10T04:36:47.561Z,101658.00
2018-09-10T04:39:16.551Z,101656.84
2018-09-10T04:41:46.508Z,101657.91
2018-09-10T04:44:15.496Z,101658.50
2018-09-10T04:46:44.482Z,101654.03
2018-09-10T04:49:13.463Z,101661.57
2018-09-10T04:51:42.452Z,101662.33
2018-09-10T04:54:11.545Z,101666.02
2018-09-10T04:56:41.446Z,101669.67
2018-09-10T04:59:10.357Z,101671.28
2018-09-10T05:01:39.379Z,101670.34
2018-09-10T05:04:09.388Z,101672.66
2018-09-10T05:06:38.335Z,101685.79
2018-09-10T05:09:08.949Z,101685.44
2018-09-10T05:11:38.068Z,101682.97
2018-09-10T05:14:07.139Z,101683.84
2018-09-10T05:16:36.104Z,101688.86
2018-09-10T05:19:06.077Z,101685.55
2018-09-10T05:21:35.109Z,101689.57
2018-09-10T05:24:05.118Z,101691.33
2018-09-10T05:26:34.141Z,101686.75
2018-09-10T05:29:04.121Z,101687.35
2018-09-10T05:31:33.103Z,101692.69
2018-09-10T05:34:03.013Z,101692.69
2018-09-10T05:36:32.012Z,101686.70
2018-09-10T05:39:00.983Z,101699.30
2018-09-10T05:41:30.999Z,101704.05
2018-09-10T05:43:59.908Z,101707.98
2018-09-10T05:46:28.959Z,101707.09
2018-09-10T05:48:57.910Z,101723.09
2018-09-10T05:51:27.257Z,101723.75
2018-09-10T05:53:56.202Z,101737.50
2018-09-10T05:56:25.257Z,101739.21
2018-09-10T05:58:55.622Z,101751.50
2018-09-10T06:01:24.605Z,101754.79
2018-09-10T06:03:53.620Z,101753.97
2018-09-10T06:06:22.595Z,101747.48
2018-09-10T06:08:52.549Z,101740.38
2018-09-10T06:11:21.483Z,101742.23
2018-09-10T06:13:50.549Z,101738.10
2018-09-10T06:16:19.504Z,101741.73
2018-09-10T06:18:48.585Z,101731.55
2018-09-10T06:21:17.580Z,101722.45
2018-09-10T06:23:46.568Z,101718.96
2018-09-10T06:26:15.551Z,101725.36
2018-09-10T06:28:44.622Z,101721.98
2018-09-10T06:31:13.541Z,101744.56
2018-09-10T06:33:42.552Z,101750.69
2018-09-10T06:36:11.675Z,101748.59
2018-09-10T06:38:40.826Z,101748.02
2018-09-10T06:41:10.755Z,101753.77
2018-09-10T06:43:39.760Z,101748.84
2018-09-10T06:46:08.969Z,101735.08
2018-09-10T06:48:37.950Z,101723.78
2018-09-10T06:51:07.726Z,101716.72
2018-09-10T06:53:36.792Z,101720.51
2018-09-10T06:56:06.787Z,101728.00
2018-09-10T06:58:36.372Z,101724.89
2018-09-10T07:01:05.459Z,101729.56
2018-09-10T07:03:34.685Z,101738.24
2018-09-10T07:06:03.646Z,101749.37
2018-09-10T07:08:32.671Z,101758.98
2018-09-10T07:11:01.658Z,101758.13
2018-09-10T07:13:30.642Z,101771.19
2018-09-10T07:15:59.651Z,101773.10
2018-09-10T07:18:28.625Z,101762.10
2018-09-10T07:20:58.554Z,101760.44
2018-09-10T07:23:27.645Z,101761.89
2018-09-10T07:25:56.647Z,101763.94
2018-09-10T07:28:25.705Z,101755.06
2018-09-10T07:30:55.661Z,101758.80
2018-09-10T07:33:24.598Z,101761.69
2018-09-10T07:35:54.536Z,101758.41
2018-09-10T07:38:25.578Z,101762.42
2018-09-10T07:40:54.637Z,101758.08
2018-09-10T07:43:23.667Z,101751.87
2018-09-10T07:45:52.572Z,101745.19
2018-09-10T07:48:22.562Z,101741.00
2018-09-10T07:50:52.539Z,101742.70
2018-09-10T07:53:21.492Z,101746.06
2018-09-10T07:55:50.541Z,101748.58
2018-09-10T07:58:19.446Z,101746.22
2018-09-10T08:00:48.400Z,101747.03
2018-09-10T08:03:19.226Z,101767.73
2018-09-10T08:05:48.207Z,101764.49
2018-09-10T08:08:17.207Z,101765.16
2018-09-10T08:10:46.242Z,101766.23
2018-09-10T08:13:15.289Z,101774.48
2018-09-10T08:15:44.309Z,101772.91
2018-09-10T08:18:14.321Z,101763.92
2018-09-10T08:20:43.282Z,101770.30
2018-09-10T08:23:12.295Z,101773.91
2018-09-10T08:25:42.360Z,101778.52
2018-09-10T08:28:12.410Z,101785.66
2018-09-10T08:30:41.447Z,101787.66
2018-09-10T08:33:10.422Z,101784.85
2018-09-10T08:35:40.477Z,101782.31
2018-09-10T08:38:09.418Z,101784.81
2018-09-10T08:40:38.504Z,101794.20
2018-09-10T08:43:07.667Z,101796.49
2018-09-10T08:45:36.606Z,101795.54
2018-09-10T08:48:05.718Z,101789.91
2018-09-10T08:50:34.748Z,101786.48
2018-09-10T08:53:03.673Z,101789.83
2018-09-10T08:55:33.405Z,101789.72
2018-09-10T08:58:02.298Z,101784.84
2018-09-10T09:00:31.311Z,101790.85
2018-09-10T09:03:00.248Z,101792.96
2018-09-10T09:05:29.248Z,101790.41
2018-09-10T09:07:59.333Z,101793.75
2018-09-10T09:10:28.276Z,101802.48
2018-09-10T09:12:57.294Z,101795.73
2018-09-10T09:15:26.817Z,101809.45
2018-09-10T09:17:55.813Z,101806.78
2018-09-10T09:20:24.777Z,101795.70
2018-09-10T09:22:53.766Z,101804.48
2018-09-10T09:25:24.802Z,101800.91
2018-09-10T09:27:55.725Z,101805.23
2018-09-10T09:30:24.766Z,101809.94
2018-09-10T09:32:53.755Z,101811.01
2018-09-10T09:37:30.363Z,101800.61
2018-09-10T09:40:05.864Z,101801.29
2018-09-10T09:42:40.196Z,101804.75
2018-09-10T09:45:14.401Z,101806.29
2018-09-10T09:47:43.341Z,101801.78
2018-09-10T09:50:14.357Z,101796.64
2018-09-10T09:52:43.343Z,101798.55
2018-09-10T09:55:12.280Z,101799.63
2018-09-10T09:57:41.160Z,101796.37
2018-09-10T10:00:16.712Z,101798.31
2018-09-10T10:02:51.942Z,101798.92
2018-09-10T10:05:22.048Z,101802.75
2018-09-10T10:07:51.040Z,101802.51
2018-09-10T10:10:21.750Z,101799.33
2018-09-10T10:12:52.095Z,101800.74
2018-09-10T10:15:21.609Z,101803.19
2018-09-10T10:17:50.559Z,101806.50
2018-09-10T10:20:19.521Z,101811.72
2018-09-10T10:22:48.704Z,101806.83
2018-09-10T10:25:18.620Z,101806.77
2018-09-10T10:27:47.538Z,101808.97
2018-09-10T10:30:16.498Z,101805.51
2018-09-10T10:32:45.419Z,101802.53
2018-09-10T10:35:15.425Z,101798.44
2018-09-10T10:37:44.560Z,101790.48
2018-09-10T10:40:13.541Z,101792.14
2018-09-10T10:42:42.531Z,101799.22
2018-09-10T10:45:11.580Z,101798.67
2018-09-10T10:47:40.476Z,101799.55
2018-09-10T10:50:10.604Z,101806.70
2018-09-10T10:52:40.702Z,101808.65
2018-09-10T10:55:09.670Z,101805.44
2018-09-10T10:57:38.610Z,101807.63
2018-09-10T11:00:07.722Z,101806.00
2018-09-10T11:02:36.705Z,101805.80
2018-09-10T11:05:06.233Z,101797.36
2018-09-10T11:07:35.253Z,101795.94
2018-09-10T11:10:04.482Z,101798.17
2018-09-10T11:12:34.456Z,101798.45
2018-09-10T11:15:04.399Z,101805.49
2018-09-10T11:17:34.362Z,101801.12
2018-09-10T11:20:03.343Z,101807.80
2018-09-10T11:22:33.293Z,101795.22
2018-09-10T11:25:02.256Z,101785.15
2018-09-10T11:27:31.345Z,101784.12
2018-09-10T11:30:00.231Z,101785.52
2018-09-10T11:32:30.178Z,101791.75
2018-09-10T11:34:59.178Z,101793.39
2018-09-10T11:37:28.135Z,101790.67
2018-09-10T11:39:58.219Z,101792.05
2018-09-10T11:42:27.204Z,101791.50
2018-09-10T11:44:57.189Z,101798.89
2018-09-10T11:47:27.115Z,101796.14
2018-09-10T11:49:58.092Z,101798.88
2018-09-10T11:52:28.079Z,101790.94
2018-09-10T11:54:57.088Z,101792.07
2018-09-10T11:57:26.295Z,101791.53
2018-09-10T11:59:55.343Z,101798.34
2018-09-10T12:02:24.426Z,101799.96
2018-09-10T12:04:53.791Z,101811.72
2018-09-10T12:07:24.392Z,101808.42
2018-09-10T12:09:53.926Z,101819.08
2018-09-10T12:12:23.388Z,101819.91
2018-09-10T12:14:54.168Z,101813.39
2018-09-10T12:17:23.782Z,101813.18
2018-09-10T12:19:53.529Z,101812.61
2018-09-10T12:22:22.938Z,101812.34
2018-09-10T12:24:53.099Z,101810.68
2018-09-10T12:27:22.651Z,101813.96
2018-09-10T12:29:52.447Z,101818.34
2018-09-10T12:32:21.793Z,101822.99
2018-09-10T12:34:51.312Z,101821.86
2018-09-10T12:37:20.622Z,101826.23
2018-09-10T12:39:49.890Z,101827.05
2018-09-10T12:42:20.160Z,101821.86
2018-09-10T12:44:49.602Z,101818.59
2018-09-10T12:47:18.651Z,101824.36
2018-09-10T12:49:47.632Z,101823.02
2018-09-10T12:52:16.586Z,101823.33
2018-09-10T12:54:46.587Z,101814.32
2018-09-10T12:57:16.505Z,101815.13
2018-09-10T12:59:45.701Z,101813.78
2018-09-10T13:02:15.641Z,101810.26
2018-09-10T13:04:45.597Z,101815.19
2018-09-10T13:07:14.806Z,101813.02
2018-09-10T13:09:43.717Z,101806.47
2018-09-10T13:12:12.663Z,101803.45
2018-09-10T13:14:41.645Z,101808.39
2018-09-10T13:17:10.648Z,101807.31
2018-09-10T13:19:39.701Z,101801.83
2018-09-10T13:22:08.755Z,101803.98
2018-09-10T13:24:38.802Z,101794.95
2018-09-10T13:27:08.801Z,101794.66
2018-09-10T13:29:37.846Z,101800.14
2018-09-10T13:32:06.854Z,101814.41
2018-09-10T13:34:35.944Z,101806.17
2018-09-10T13:37:04.961Z,101810.27
2018-09-10T13:39:34.937Z,101796.59
2018-09-10T13:42:04.838Z,101797.67
2018-09-10T13:44:33.827Z,101791.22
2018-09-10T13:47:03.794Z,101797.42
2018-09-10T13:49:32.747Z,101803.95
2018-09-10T13:52:02.752Z,101813.81
2018-09-10T13:54:32.736Z,101806.17
2018-09-10T13:57:01.690Z,101801.48
2018-09-10T13:59:30.665Z,101809.44
2018-09-10T14:01:59.705Z,101803.43
2018-09-10T14:04:28.618Z,101793.02
2018-09-10T14:06:57.539Z,101789.75
2018-09-10T14:09:26.556Z,101788.38
2018-09-10T14:11:55.600Z,101787.53
2018-09-10T14:14:25.535Z,101783.72
2018-09-10T14:16:55.604Z,101781.83
2018-09-10T14:19:25.572Z,101775.81
2018-09-10T14:21:55.211Z,101776.91
2018-09-10T14:24:25.450Z,101781.88
2018-09-10T14:26:56.142Z,101782.39
2018-09-10T14:29:25.501Z,101785.12
2018-09-10T14:31:54.578Z,101781.00
2018-09-10T14:34:23.564Z,101783.22
2018-09-10T14:36:53.791Z,101784.87
2018-09-10T14:39:22.767Z,101793.94
2018-09-10T14:41:52.786Z,101797.80
2018-09-10T14:44:22.690Z,101805.26
2018-09-10T14:46:51.672Z,101816.73
2018-09-10T14:49:20.721Z,101820.56
2018-09-10T14:51:49.895Z,101814.50
2018-09-10T14:54:19.893Z,101816.95
2018-09-10T14:56:48.864Z,101810.67
2018-09-10T14:59:17.907Z,101798.85
2018-09-10T15:01:46.898Z,101799.95
2018-09-10T15:04:15.860Z,101811.73
2018-09-10T15:06:44.877Z,101807.89
2018-09-10T15:09:13.864Z,101809.78
2018-09-10T15:11:44.857Z,101814.73
2018-09-10T15:14:13.814Z,101817.20
2018-09-10T15:16:42.754Z,101820.75
2018-09-10T15:19:12.810Z,101829.80
2018-09-10T15:21:41.732Z,101826.77
2018-09-10T15:24:10.763Z,101826.20
2018-09-10T15:26:40.845Z,101823.98
2018-09-10T15:29:09.864Z,101822.05
2018-09-10T15:31:39.762Z,101821.25
2018-09-10T15:34:08.748Z,101822.06
2018-09-10T15:36:37.654Z,101820.39
2018-09-10T15:39:08.373Z,101820.66
2018-09-10T15:41:37.354Z,101813.82
2018-09-10T15:44:06.473Z,101813.00
2018-09-10T15:46:35.646Z,101806.97
2018-09-10T15:49:05.698Z,101802.86
2018-09-10T15:51:34.676Z,101803.70
2018-09-10T15:54:04.611Z,101803.42
2018-09-10T15:56:34.908Z,101800.69
2018-09-10T15:59:03.868Z,101793.84
2018-09-10T16:01:32.843Z,101792.47
2018-09-10T16:04:01.868Z,101792.21
2018-09-10T16:06:30.818Z,101793.30
2018-09-10T16:08:59.956Z,101800.97
2018-09-10T16:11:29.957Z,101802.06
2018-09-10T16:13:58.940Z,101801.50
2018-09-10T16:16:28.417Z,101806.95
2018-09-10T16:18:58.389Z,101803.70
2018-09-10T16:21:27.328Z,101804.24
2018-09-10T16:23:56.227Z,101800.14
2018-09-10T16:26:25.387Z,101798.77
2018-09-10T16:28:55.457Z,101806.47
2018-09-10T16:31:24.446Z,101795.52
2018-09-10T16:33:54.444Z,101788.91
2018-09-10T16:36:23.405Z,101776.06
2018-09-10T16:38:53.540Z,101774.67
2018-09-10T16:41:22.521Z,101778.21
2018-09-10T16:43:51.765Z,101764.53
2018-09-10T16:46:21.043Z,101772.20
2018-09-10T16:48:51.165Z,101779.55
2018-09-10T16:51:21.611Z,101778.45
2018-09-10T16:53:50.887Z,101769.66
2018-09-10T16:56:19.914Z,101772.41
2018-09-10T16:58:48.923Z,101771.30
2018-09-10T17:01:18.984Z,101781.71
2018-09-10T17:03:48.006Z,101781.95
2018-09-10T17:06:17.028Z,101785.24
2018-09-10T17:08:46.124Z,101784.95
2018-09-10T17:11:16.027Z,101786.30
2018-09-10T17:13:45.966Z,101795.60
2018-09-10T17:16:15.205Z,101791.23
2018-09-10T17:18:44.106Z,101789.34
2018-09-10T17:21:14.047Z,101775.08
2018-09-10T17:23:44.107Z,101773.41
2018-09-10T17:26:13.374Z,101774.73
2018-09-10T17:28:42.791Z,101763.25
2018-09-10T17:31:12.955Z,101755.03
2018-09-10T17:33:42.112Z,101763.73
2018-09-10T17:36:11.225Z,101765.34
2018-09-10T17:38:40.565Z,101767.80
2018-09-10T17:41:10.531Z,101766.94
2018-09-10T17:43:40.617Z,101759.48
2018-09-10T17:46:09.691Z,101772.05
2018-09-10T17:48:38.636Z,101786.00
2018-09-10T17:51:07.681Z,101788.45
2018-09-10T17:53:36.701Z,101788.12
2018-09-10T17:56:05.769Z,101790.77
2018-09-10T17:58:36.796Z,101799.53
2018-09-10T18:01:08.782Z,101824.69
2018-09-10T18:03:38.716Z,101826.03
2018-09-10T18:06:08.606Z,101832.84
2018-09-10T18:08:38.541Z,101834.66
2018-09-10T18:11:07.571Z,101835.40
2018-09-10T18:13:36.557Z,101837.30
2018-09-10T18:16:05.560Z,101836.92
2018-09-10T18:18:34.537Z,101827.05
2018-09-10T18:21:03.562Z,101833.77
2018-09-10T18:23:32.628Z,101833.77
2018-09-10T18:26:01.772Z,101839.91
2018-09-10T18:28:31.766Z,101840.92
2018-09-10T18:31:00.993Z,101842.08
2018-09-10T18:33:30.021Z,101845.28
2018-09-10T18:35:58.985Z,101830.66
2018-09-10T18:38:28.146Z,101836.05
2018-09-10T18:40:57.227Z,101835.86
2018-09-10T18:43:26.163Z,101830.50
2018-09-10T18:45:56.102Z,101831.41
2018-09-10T18:48:26.029Z,101817.08
2018-09-10T18:50:56.097Z,101805.16
2018-09-10T18:53:26.136Z,101798.11
2018-09-10T18:55:56.671Z,101791.71
2018-09-10T18:58:26.242Z,101789.66
2018-09-10T19:00:55.796Z,101791.38
2018-09-10T19:03:25.804Z,101786.73
2018-09-10T19:05:54.797Z,101788.85
2018-09-10T19:08:23.929Z,101788.07
2018-09-10T19:10:52.922Z,101788.85
2018-09-10T19:13:21.986Z,101786.66
2018-09-10T19:15:51.432Z,101774.87
2018-09-10T19:18:20.465Z,101772.91
2018-09-10T19:20:49.427Z,101756.53
2018-09-10T19:23:18.405Z,101751.80
2018-09-10T19:25:47.391Z,101768.39
2018-09-10T19:28:17.698Z,101777.13
2018-09-10T19:30:47.781Z,101775.50
2018-09-10T19:33:17.841Z,101784.82
2018-09-10T19:35:46.903Z,101778.73
2018-09-10T19:38:15.972Z,101787.84
2018-09-10T19:40:44.940Z,101792.70
2018-09-10T19:43:15.007Z,101785.56
2018-09-10T19:45:43.978Z,101793.44
2018-09-10T19:48:14.304Z,101802.43
2018-09-10T19:50:43.559Z,101799.43
2018-09-10T19:53:12.447Z,101796.27
2018-09-10T19:55:41.678Z,101796.27
2018-09-10T19:58:10.647Z,101795.90
2018-09-10T20:00:39.628Z,101798.36
2018-09-10T20:03:09.433Z,101798.06
2018-09-10T20:05:38.470Z,101792.80
2018-09-10T20:08:07.443Z,101789.69
2018-09-10T20:10:36.437Z,101794.67
2018-09-10T20:13:05.421Z,101795.10
2018-09-10T20:15:34.381Z,101800.00
2018-09-10T20:18:04.411Z,101802.94
2018-09-10T20:20:34.325Z,101797.36
2018-09-10T20:23:03.401Z,101799.23
2018-09-10T20:25:32.349Z,101807.31
2018-09-10T20:28:02.354Z,101813.33
2018-09-10T20:30:32.568Z,101811.11
2018-09-10T20:33:02.520Z,101814.09
2018-09-10T20:35:31.520Z,101813.15
2018-09-10T20:38:00.462Z,101818.20
2018-09-10T20:40:29.437Z,101812.17
2018-09-10T20:42:58.569Z,101807.98
2018-09-10T20:45:28.611Z,101810.38
2018-09-10T20:47:57.558Z,101808.58
2018-09-10T20:50:26.600Z,101820.37
2018-09-10T20:52:55.660Z,101829.19
2018-09-10T20:55:25.576Z,101821.47
2018-09-10T20:57:54.570Z,101825.30
2018-09-10T21:00:23.572Z,101832.45
2018-09-10T21:02:52.553Z,101836.34
2018-09-10T21:05:21.515Z,101840.67
2018-09-10T21:07:50.820Z,101846.03
2018-09-10T21:10:21.763Z,101841.73
2018-09-10T21:12:50.911Z,101841.58
2018-09-10T21:15:20.078Z,101836.59
2018-09-10T21:17:49.063Z,101840.30
2018-09-10T21:20:18.060Z,101839.78
2018-09-10T21:22:47.283Z,101851.19
2018-09-10T21:25:16.351Z,101840.44
2018-09-10T21:27:45.506Z,101844.09
2018-09-10T21:30:14.470Z,101850.52
2018-09-10T21:32:43.437Z,101853.98
2018-09-10T21:35:12.391Z,101857.48
2018-09-10T21:37:42.718Z,101854.92
2018-09-10T21:40:11.618Z,101851.86
2018-09-10T21:42:40.575Z,101853.47
2018-09-10T21:45:09.645Z,101842.06
2018-09-10T21:47:38.603Z,101847.69
2018-09-10T21:50:07.603Z,101857.56
2018-09-10T21:52:36.601Z,101846.87
2018-09-10T21:55:06.502Z,101837.42
2018-09-10T21:57:36.505Z,101834.25
2018-09-10T22:00:06.329Z,101836.20
2018-09-10T22:02:36.378Z,101840.90
2018-09-10T22:05:05.412Z,101836.31
2018-09-10T22:07:34.351Z,101834.45
2018-09-10T22:10:04.274Z,101836.36
2018-09-10T22:12:33.253Z,101841.91
2018-09-10T22:15:02.301Z,101847.59
2018-09-10T22:17:31.256Z,101848.11
2018-09-10T22:20:00.223Z,101846.38
2018-09-10T22:22:29.174Z,101841.09
2018-09-10T22:24:59.109Z,101842.61
2018-09-10T22:27:28.061Z,101846.59
2018-09-10T22:29:57.075Z,101833.94
2018-09-10T22:32:26.069Z,101843.52
2018-09-10T22:34:56.023Z,101845.44
2018-09-10T22:37:25.031Z,101844.52
2018-09-10T22:39:54.029Z,101847.48
2018-09-10T22:42:22.997Z,101844.77
2018-09-10T22:44:52.913Z,101841.89
2018-09-10T22:47:21.945Z,101844.11
2018-09-10T22:49:51.044Z,101842.81
2018-09-10T22:52:19.999Z,101838.48
2018-09-10T22:54:49.969Z,101844.61
2018-09-10T22:57:18.959Z,101852.06
2018-09-10T22:59:48.972Z,101856.39
2018-09-10T23:02:18.024Z,101859.70
2018-09-10T23:04:47.953Z,101858.78
2018-09-10T23:07:17.893Z,101853.75
2018-09-10T23:09:47.097Z,101853.55
2018-09-10T23:12:16.938Z,101852.13
2018-09-10T23:14:46.354Z,101842.20
2018-09-10T23:17:15.265Z,101844.56
2018-09-10T23:19:44.653Z,101834.63
2018-09-10T23:22:14.045Z,101834.38
2018-09-10T23:24:43.772Z,101834.33
2018-09-10T23:27:14.290Z,101842.21
2018-09-10T23:29:43.667Z,101842.55
2018-09-10T23:32:13.306Z,101832.86
2018-09-10T23:34:42.291Z,101830.88
2018-09-10T23:37:11.209Z,101835.70
2018-09-10T23:39:41.906Z,101835.34
2018-09-10T23:42:11.811Z,101833.10
2018-09-10T23:44:40.757Z,101836.06
2018-09-10T23:47:09.766Z,101828.66
2018-09-10T23:49:38.731Z,101830.56
2018-09-10T23:52:07.777Z,101834.17
2018-09-10T23:54:36.697Z,101836.81
2018-09-10T23:57:05.639Z,101831.69
2018-09-10T23:59:34.606Z,101832.80
